Terminal Aerodrome Forecast
Issued by NWS Twin Cities, MN

Home | Current Version | Previous Version | Text Only | Print | Product List | Glossary On
Versions: 1 2 3 4 5 6 7 8 9 10 11 12 13 14 15 16 17 18 19
000
FTUS43 KMPX 211125
TAFSTC
TAF
KSTC 211125Z 2112/2212 30015G22KT P6SM VCSH SCT025 OVC035
     FM211400 30022G32KT P6SM VCSH OVC030
     FM212100 31019G28KT P6SM OVC050
     FM220300 33013G21KT P6SM BKN100
     FM220600 31010KT P6SM SCT250=

USA.gov is the U.S. government's official web portal to all federal, state and local government web resources and services.